Time;durP1;ratioP1;P1;durP2;ratioP2;P2;SDS_P1;SDS_P2;PMS_P1;PMS_P2;Temp;Humidity;BMP_temperature;BMP_pressure;BME280_temperature;BME280_humidity;BME280_pressure;Samples;Min_cycle;Max_cycle;Signal;HPM_P1;HPM_P2
2023/03/25 00:01:32;;;;;;;14.60;3.20;;;10.10;99.90;;;;;;7367188;19;20381;-72
2023/03/25 00:04:00;;;;;;;10.32;2.72;;;10.10;99.90;;;;;;7383217;19;20018;-72
2023/03/25 00:06:27;;;;;;;12.82;3.00;;;10.10;99.90;;;;;;7385061;19;20027;-72
2023/03/25 00:09:01;;;;;;;12.65;3.28;;;10.10;99.90;;;;;;7389765;19;20010;-73
2023/03/25 00:11:27;;;;;;;12.80;3.88;;;10.20;99.90;;;;;;7375677;19;20421;-65
2023/03/25 00:13:54;;;;;;;14.13;2.42;;;10.20;99.90;;;;;;7372045;19;20028;-65
2023/03/25 00:16:20;;;;;;;12.75;3.35;;;10.20;99.90;;;;;;7373330;19;20023;-65
2023/03/25 00:18:47;;;;;;;12.77;3.20;;;10.20;99.90;;;;;;7372337;19;20393;-65
2023/03/25 00:21:14;;;;;;;12.70;3.22;;;10.10;99.90;;;;;;7379223;19;20802;-66
2023/03/25 00:23:41;;;;;;;11.32;3.05;;;10.20;99.90;;;;;;7376981;19;20045;-65
2023/03/25 00:26:11;;;;;;;12.75;2.65;;;10.20;99.90;;;;;;7377984;19;20055;-65
2023/03/25 00:28:38;;;;;;;11.48;3.15;;;10.20;99.90;;;;;;7376563;19;20019;-65
2023/03/25 00:31:10;;;;;;;14.30;3.30;;;10.20;99.90;;;;;;7376368;19;20096;-65
2023/03/25 00:33:40;;;;;;;9.90;2.65;;;10.10;99.90;;;;;;7376766;19;20078;-65
2023/03/25 00:36:16;;;;;;;6.85;1.92;;;10.10;99.90;;;;;;7378466;19;20010;-65
2023/03/25 00:38:44;;;;;;;11.13;2.13;;;10.00;99.90;;;;;;7377894;19;20018;-65
2023/03/25 00:41:16;;;;;;;13.68;2.60;;;10.00;99.90;;;;;;7378174;19;20018;-65
2023/03/25 00:43:44;;;;;;;13.93;2.83;;;10.00;99.90;;;;;;7378062;19;20015;-65
2023/03/25 00:46:11;;;;;;;11.88;3.15;;;10.00;99.90;;;;;;7379482;19;20021;-65
2023/03/25 00:48:37;;;;;;;9.32;2.40;;;9.90;99.90;;;;;;7374038;19;20025;-65
2023/03/25 00:51:06;;;;;;;10.23;2.88;;;9.70;99.90;;;;;;7375769;19;20018;-65
2023/03/25 00:53:35;;;;;;;9.80;2.58;;;9.60;99.90;;;;;;7376719;19;20021;-65
2023/03/25 00:56:06;;;;;;;13.25;3.03;;;9.40;99.90;;;;;;7373916;19;20022;-65
2023/03/25 00:58:42;;;;;;;13.35;3.35;;;9.30;99.90;;;;;;7371638;19;20029;-66
2023/03/25 01:01:12;;;;;;;9.80;3.30;;;9.10;99.90;;;;;;7374403;19;20096;-72
2023/03/25 01:03:39;;;;;;;8.55;3.33;;;9.10;99.90;;;;;;7398066;19;20018;-72
2023/03/25 01:06:12;;;;;;;11.23;4.10;;;9.10;99.90;;;;;;7397664;19;20014;-73
2023/03/25 01:08:39;;;;;;;12.05;4.72;;;9.10;99.90;;;;;;7392043;19;20044;-72
2023/03/25 01:11:15;;;;;;;9.27;4.40;;;9.10;99.90;;;;;;7395655;19;20094;-72
2023/03/25 01:13:41;;;;;;;10.70;4.18;;;9.10;99.90;;;;;;7399529;19;20010;-72
2023/03/25 01:16:12;;;;;;;15.30;4.95;;;9.00;99.90;;;;;;7399622;19;20078;-72
2023/03/25 01:18:40;;;;;;;13.80;4.70;;;9.00;99.90;;;;;;7400564;19;20018;-72
2023/03/25 01:21:07;;;;;;;15.07;5.72;;;9.00;99.90;;;;;;7399409;19;20096;-72
2023/03/25 01:23:34;;;;;;;12.45;4.97;;;8.90;99.90;;;;;;7403554;19;20006;-73
2023/03/25 01:26:05;;;;;;;13.90;5.57;;;8.90;99.90;;;;;;7401588;19;20096;-72
2023/03/25 01:28:31;;;;;;;12.65;5.10;;;8.90;99.90;;;;;;7396320;19;20007;-71
2023/03/25 01:31:05;;;;;;;16.52;5.35;;;8.80;99.90;;;;;;7388914;19;20090;-71
2023/03/25 01:33:32;;;;;;;14.77;4.78;;;8.80;99.90;;;;;;7388221;19;20022;-71
2023/03/25 01:36:01;;;;;;;16.27;4.97;;;8.80;99.90;;;;;;7385358;19;20039;-71
2023/03/25 01:38:29;;;;;;;12.25;4.70;;;8.80;99.90;;;;;;7382038;19;20471;-71
2023/03/25 01:40:56;;;;;;;9.85;3.90;;;8.80;99.90;;;;;;7377923;19;20818;-71
2023/03/25 01:43:23;;;;;;;18.85;4.68;;;8.80;99.90;;;;;;7375205;19;20022;-71
2023/03/25 01:45:50;;;;;;;19.10;5.32;;;8.80;99.90;;;;;;7383628;19;20017;-71
2023/03/25 01:48:24;;;;;;;16.80;4.70;;;8.80;99.90;;;;;;7382498;19;20022;-65
2023/03/25 01:51:01;;;;;;;17.00;5.18;;;8.80;99.90;;;;;;7372461;19;20025;-65
2023/03/25 01:53:30;;;;;;;14.80;4.95;;;8.80;99.90;;;;;;7375675;19;20014;-65
2023/03/25 01:56:01;;;;;;;17.10;4.75;;;8.80;99.90;;;;;;7371553;19;20025;-65
2023/03/25 01:58:30;;;;;;;16.00;5.72;;;8.80;99.90;;;;;;7372437;19;20082;-66
2023/03/25 02:00:56;;;;;;;14.50;4.63;;;8.70;99.90;;;;;;7372281;19;20118;-65
2023/03/25 02:03:24;;;;;;;14.43;4.35;;;8.70;99.90;;;;;;7374217;19;20363;-66
2023/03/25 02:06:01;;;;;;;20.23;5.97;;;8.70;99.90;;;;;;7372368;19;20022;-65
2023/03/25 02:08:31;;;;;;;20.17;4.93;;;8.60;99.90;;;;;;7371382;19;20015;-65
2023/03/25 02:10:58;;;;;;;14.50;4.95;;;8.60;99.90;;;;;;7366687;19;20857;-64
2023/03/25 02:13:24;;;;;;;20.33;5.25;;;8.50;99.90;;;;;;7366500;19;20039;-65
2023/03/25 02:16:16;;;;;;;18.25;5.05;;;8.50;99.90;;;;;;7368495;19;20022;-65
2023/03/25 02:18:50;;;;;;;19.98;6.13;;;8.50;99.90;;;;;;7370321;19;20022;-65
2023/03/25 02:21:46;;;;;;;22.85;5.03;;;8.40;99.90;;;;;;7370871;19;20765;-65
2023/03/25 02:24:35;;;;;;;23.13;4.75;;;8.50;99.90;;;;;;7369240;19;20018;-65
2023/03/25 02:27:26;;;;;;;18.92;5.07;;;8.50;99.90;;;;;;7372351;19;20019;-65
2023/03/25 02:30:17;;;;;;;18.03;5.53;;;8.40;99.90;;;;;;7370812;19;20022;-65
2023/03/25 02:33:20;;;;;;;17.60;4.75;;;8.40;99.90;;;;;;7369511;19;20287;-65
2023/03/25 02:36:16;;;;;;;19.73;5.68;;;8.40;99.90;;;;;;7373965;19;20094;-65
2023/03/25 02:38:54;;;;;;;18.83;5.07;;;8.40;99.90;;;;;;7367612;19;20018;-65
2023/03/25 02:41:25;;;;;;;20.70;4.97;;;8.40;99.90;;;;;;7366144;19;20676;-65
2023/03/25 02:44:12;;;;;;;23.58;5.75;;;8.40;99.90;;;;;;7365356;19;20022;-65
2023/03/25 02:46:54;;;;;;;19.00;5.70;;;8.30;99.90;;;;;;7363282;19;20454;-65
2023/03/25 02:49:38;;;;;;;19.38;4.47;;;8.40;99.90;;;;;;7372751;19;20025;-65
2023/03/25 02:52:08;;;;;;;;;;;8.40;99.90;;;;;;7372678;19;20026;-65
2023/03/25 02:54:38;;;;;;;24.45;5.28;;;8.30;99.90;;;;;;7368782;19;19936;-65
2023/03/25 02:57:07;;;;;;;19.70;4.28;;;8.40;99.90;;;;;;7369634;19;20025;-66
2023/03/25 02:59:37;;;;;;;23.25;4.57;;;8.30;99.90;;;;;;7368879;19;20037;-65
2023/03/25 03:02:10;;;;;;;23.20;4.18;;;8.30;99.90;;;;;;7369038;19;20015;-66
2023/03/25 03:04:52;;;;;;;19.85;4.22;;;8.40;99.90;;;;;;7367530;19;20037;-64
2023/03/25 03:07:24;;;;;;;20.65;4.43;;;8.40;99.90;;;;;;7375727;19;20025;-69
2023/03/25 03:10:25;;;;;;;16.92;4.82;;;8.40;99.90;;;;;;7373835;19;20030;-70
2023/03/25 03:13:28;;;;;;;13.48;4.00;;;8.40;99.90;;;;;;7374310;19;20014;-70
2023/03/25 03:16:04;;;;;;;;;;;8.50;99.90;;;;;;7370559;19;20018;-69
2023/03/25 03:19:01;;;;;;;22.27;4.70;;;8.40;99.90;;;;;;7367075;19;19914;-69
2023/03/25 03:21:53;;;;;;;20.85;4.63;;;8.50;99.90;;;;;;7368064;19;20022;-64
2023/03/25 03:24:51;;;;;;;16.30;4.05;;;8.50;99.90;;;;;;7372359;19;20028;-64
2023/03/25 03:27:45;;;;;;;16.05;4.35;;;8.50;99.90;;;;;;7361593;19;20019;-63
2023/03/25 03:30:28;;;;;;;13.52;3.55;;;8.50;99.90;;;;;;7370468;19;20039;-64
2023/03/25 03:33:20;;;;;;;19.88;5.10;;;8.50;99.90;;;;;;7367016;19;20022;-64
2023/03/25 03:35:57;;;;;;;19.15;4.88;;;8.50;99.90;;;;;;7365452;19;20015;-64
2023/03/25 03:38:28;;;;;;;15.82;4.82;;;8.50;99.90;;;;;;7367188;19;20026;-64
2023/03/25 03:40:58;;;;;;;17.65;4.43;;;8.50;99.90;;;;;;7367692;19;20364;-64
2023/03/25 03:43:35;;;;;;;12.57;3.88;;;8.50;99.90;;;;;;7371885;19;20099;-64
2023/03/25 03:46:06;;;;;;;15.35;3.90;;;8.60;99.90;;;;;;7363965;19;20019;-64
2023/03/25 03:48:39;;;;;;;18.37;4.97;;;8.60;99.90;;;;;;7361202;19;20758;-64
2023/03/25 03:51:10;;;;;;;21.52;4.18;;;8.60;99.90;;;;;;7365289;19;20311;-64
2023/03/25 03:53:42;;;;;;;;;;;8.60;99.90;;;;;;7362895;19;20046;-65
2023/03/25 03:56:18;;;;;;;17.35;4.05;;;8.60;99.90;;;;;;7365264;19;19940;-63
2023/03/25 03:58:47;;;;;;;18.08;4.55;;;8.60;99.90;;;;;;7363570;19;20023;-64
2023/03/25 04:01:26;;;;;;;19.45;4.35;;;8.60;99.90;;;;;;7367940;19;20026;-64
2023/03/25 04:04:04;;;;;;;18.80;4.32;;;8.50;99.90;;;;;;7367260;19;20074;-64
2023/03/25 04:06:41;;;;;;;18.85;5.15;;;8.50;99.90;;;;;;7366446;19;20019;-64
2023/03/25 04:09:26;;;;;;;18.92;4.18;;;8.50;99.90;;;;;;7365553;19;20576;-64
2023/03/25 04:12:09;;;;;;;17.10;4.32;;;8.50;99.90;;;;;;7366160;19;20070;-64
2023/03/25 04:14:37;;;;;;;17.20;5.32;;;8.60;99.90;;;;;;7366249;19;20014;-64
2023/03/25 04:17:05;;;;;;;22.00;4.57;;;8.60;99.90;;;;;;7366483;19;20112;-64
2023/03/25 04:19:32;;;;;;;17.88;4.75;;;8.60;99.90;;;;;;7363439;19;20019;-64
2023/03/25 04:22:03;;;;;;;19.27;6.05;;;8.60;99.90;;;;;;7365236;19;20082;-64
2023/03/25 04:24:30;;;;;;;17.23;4.30;;;8.60;99.90;;;;;;7363410;19;20461;-69
2023/03/25 04:27:03;;;;;;;14.68;5.40;;;8.50;99.90;;;;;;7366638;19;20019;-64
2023/03/25 04:29:32;;;;;;;22.77;5.65;;;8.50;99.90;;;;;;7369249;19;20056;-64
2023/03/25 04:31:59;;;;;;;18.52;5.30;;;8.50;99.90;;;;;;7368380;19;20029;-64
2023/03/25 04:34:27;;;;;;;16.88;4.90;;;8.40;99.90;;;;;;7368029;19;20019;-64
2023/03/25 04:36:53;;;;;;;21.48;4.53;;;8.50;99.90;;;;;;7363572;19;20018;-64
2023/03/25 04:39:24;;;;;;;16.27;4.93;;;8.40;99.90;;;;;;7369650;19;20026;-64
2023/03/25 04:42:02;;;;;;;16.52;4.50;;;8.40;99.90;;;;;;7368318;19;20651;-64
2023/03/25 04:44:32;;;;;;;17.25;4.93;;;8.40;99.90;;;;;;7367107;19;20019;-64
2023/03/25 04:47:00;;;;;;;17.05;5.32;;;8.40;99.90;;;;;;7368129;19;20029;-64
2023/03/25 04:49:26;;;;;;;15.68;4.75;;;8.40;99.90;;;;;;7364718;19;20022;-64
2023/03/25 04:51:54;;;;;;;18.30;5.40;;;8.40;99.90;;;;;;7369944;19;20035;-64
2023/03/25 04:54:22;;;;;;;15.40;4.75;;;8.30;99.90;;;;;;7374598;19;20021;-65
2023/03/25 04:56:50;;;;;;;20.48;5.03;;;8.40;99.90;;;;;;7371042;19;20470;-65
2023/03/25 04:59:18;;;;;;;22.00;6.60;;;8.40;99.90;;;;;;7378965;19;20014;-70
2023/03/25 05:01:45;;;;;;;20.55;5.95;;;8.40;99.90;;;;;;7374774;19;20029;-70
2023/03/25 05:04:16;;;;;;;20.17;5.10;;;8.40;99.90;;;;;;7375954;19;20030;-70
2023/03/25 05:06:45;;;;;;;15.90;5.87;;;8.40;99.90;;;;;;7378211;19;20607;-70
2023/03/25 05:09:14;;;;;;;18.13;5.40;;;8.40;99.90;;;;;;7380563;19;20019;-70
2023/03/25 05:11:42;;;;;;;19.17;5.80;;;8.40;99.90;;;;;;7378592;19;20048;-69
2023/03/25 05:14:09;;;;;;;21.67;6.38;;;8.30;99.90;;;;;;7377834;19;20052;-69
2023/03/25 05:16:36;;;;;;;17.85;5.65;;;8.20;99.90;;;;;;7375907;19;20356;-69
2023/03/25 05:19:06;;;;;;;19.70;6.40;;;8.10;99.90;;;;;;7373539;19;20751;-68
2023/03/25 05:21:37;;;;;;;25.92;5.93;;;8.10;99.90;;;;;;7376104;19;20019;-68
2023/03/25 05:24:07;;;;;;;15.77;6.22;;;8.10;99.90;;;;;;7370976;19;20018;-64
2023/03/25 05:26:42;;;;;;;21.83;6.82;;;8.10;99.90;;;;;;7363583;19;20021;-64
2023/03/25 05:29:12;;;;;;;18.17;6.47;;;8.10;99.90;;;;;;7364557;19;20022;-69
2023/03/25 05:31:40;;;;;;;22.50;6.10;;;8.20;99.90;;;;;;7374260;19;20460;-64
2023/03/25 05:34:07;;;;;;;15.35;5.65;;;8.20;99.90;;;;;;7372695;19;20782;-64
2023/03/25 05:36:34;;;;;;;17.77;5.35;;;8.20;99.90;;;;;;7372049;19;20032;-65
2023/03/25 05:39:01;;;;;;;19.90;7.63;;;8.20;99.90;;;;;;7372274;19;20637;-64
2023/03/25 05:41:37;;;;;;;18.05;6.10;;;8.30;99.90;;;;;;7369856;19;20024;-64
2023/03/25 05:44:06;;;;;;;15.77;5.28;;;8.30;99.90;;;;;;7371402;19;20023;-70
2023/03/25 05:46:33;;;;;;;21.02;5.00;;;8.30;99.90;;;;;;7375631;19;20026;-64
2023/03/25 05:49:00;;;;;;;17.92;4.55;;;8.30;99.90;;;;;;7367059;19;20470;-70
2023/03/25 05:51:32;;;;;;;15.77;5.00;;;8.20;99.90;;;;;;7375297;19;20018;-70
2023/03/25 05:53:58;;;;;;;13.32;4.32;;;8.20;99.90;;;;;;7370876;19;20015;-64
2023/03/25 05:56:25;;;;;;;16.27;5.85;;;8.20;99.90;;;;;;7373365;19;20022;-69
2023/03/25 05:58:52;;;;;;;17.35;5.38;;;8.20;99.90;;;;;;7366878;19;20632;-64
2023/03/25 06:01:20;;;;;;;15.18;4.80;;;8.20;99.90;;;;;;7367651;19;20022;-64
2023/03/25 06:03:47;;;;;;;17.95;5.47;;;8.20;99.90;;;;;;7371005;19;20018;-64
2023/03/25 06:06:17;;;;;;;12.70;4.60;;;8.20;99.90;;;;;;7368629;19;20382;-64
2023/03/25 06:08:49;;;;;;;16.42;5.88;;;8.20;99.90;;;;;;7368911;19;20029;-64
2023/03/25 06:11:17;;;;;;;18.67;5.30;;;8.10;99.90;;;;;;7368349;19;20041;-64
2023/03/25 06:14:05;;;;;;;18.48;6.25;;;8.20;99.90;;;;;;7367120;19;20019;-63
2023/03/25 06:16:51;;;;;;;20.60;6.28;;;8.20;99.90;;;;;;7366739;19;20400;-64
2023/03/25 06:19:37;;;;;;;;;;;8.20;99.90;;;;;;7367974;19;20428;-65
2023/03/25 06:22:09;;;;;;;17.35;5.22;;;8.20;99.90;;;;;;7364081;19;19970;-63
2023/03/25 06:24:40;;;;;;;17.17;5.78;;;8.20;99.90;;;;;;7366189;19;20021;-64
2023/03/25 06:27:15;;;;;;;15.30;4.80;;;8.20;99.90;;;;;;7364632;19;20021;-64
2023/03/25 06:29:41;;;;;;;13.68;4.63;;;8.20;99.90;;;;;;7375329;19;20082;-70
2023/03/25 06:32:11;;;;;;;15.15;4.43;;;8.20;99.90;;;;;;7370482;19;20022;-68
2023/03/25 06:34:41;;;;;;;16.77;5.32;;;8.20;99.90;;;;;;7374041;19;20126;-69
2023/03/25 06:37:08;;;;;;;17.58;4.65;;;8.20;99.90;;;;;;7374548;19;20022;-69
2023/03/25 06:39:36;;;;;;;17.27;4.53;;;8.10;99.90;;;;;;7377868;19;20031;-69
2023/03/25 06:42:10;;;;;;;18.02;3.95;;;8.20;99.90;;;;;;7372046;19;20018;-69
2023/03/25 06:45:03;;;;;;;14.05;3.78;;;8.20;99.90;;;;;;7376880;19;21031;-69
2023/03/25 06:47:58;;;;;;;14.38;3.33;;;8.30;99.90;;;;;;7374157;19;20019;-69
2023/03/25 06:50:25;;;;;;;21.77;4.10;;;8.30;99.90;;;;;;7377019;19;20379;-69
2023/03/25 06:52:51;;;;;;;15.80;3.65;;;8.30;99.90;;;;;;7373718;19;20022;-69
2023/03/25 06:55:20;;;;;;;14.35;4.15;;;8.40;99.90;;;;;;7374930;19;20026;-69
2023/03/25 06:57:46;;;;;;;16.40;4.20;;;8.40;99.90;;;;;;7368872;19;20014;-69
2023/03/25 07:00:13;;;;;;;16.92;3.92;;;8.40;99.90;;;;;;7372955;19;20777;-69
2023/03/25 07:02:40;;;;;;;21.10;4.68;;;8.60;99.90;;;;;;7372685;19;20395;-70
2023/03/25 07:05:07;;;;;;;11.45;3.88;;;8.60;99.90;;;;;;7372253;19;20371;-68
2023/03/25 07:07:33;;;;;;;18.98;4.13;;;8.70;99.90;;;;;;7369596;19;20015;-69
2023/03/25 07:10:02;;;;;;;14.05;3.88;;;8.80;99.90;;;;;;7371030;19;21112;-69
2023/03/25 07:12:28;;;;;;;14.70;3.95;;;9.10;99.90;;;;;;7373346;19;20048;-69
2023/03/25 07:14:56;;;;;;;22.02;4.55;;;9.20;99.90;;;;;;7373877;19;20098;-69
2023/03/25 07:17:23;;;;;;;22.95;3.95;;;9.30;99.90;;;;;;7376178;19;20019;-69
2023/03/25 07:19:49;;;;;;;21.02;4.50;;;9.40;99.90;;;;;;7371731;19;20027;-69
2023/03/25 07:22:16;;;;;;;22.25;4.72;;;9.40;99.90;;;;;;7376931;19;20033;-69
2023/03/25 07:24:42;;;;;;;22.98;4.85;;;9.50;99.90;;;;;;7368236;19;20022;-65
2023/03/25 07:27:11;;;;;;;16.30;3.92;;;9.60;99.90;;;;;;7362747;19;20019;-64
2023/03/25 07:29:38;;;;;;;22.85;5.15;;;9.60;99.90;;;;;;7364880;19;20101;-64
2023/03/25 07:32:04;;;;;;;22.38;4.32;;;9.30;99.90;;;;;;7367802;19;20033;-68
2023/03/25 07:34:31;;;;;;;20.95;4.55;;;9.00;99.90;;;;;;7366325;19;20018;-67
2023/03/25 07:36:58;;;;;;;24.60;6.25;;;8.90;99.90;;;;;;7366728;19;20118;-67
2023/03/25 07:39:25;;;;;;;26.13;5.35;;;8.80;99.90;;;;;;7369423;19;20521;-68
2023/03/25 07:41:54;;;;;;;24.98;5.28;;;8.70;99.90;;;;;;7367906;19;20022;-69
2023/03/25 07:44:32;;;;;;;18.73;4.88;;;8.50;99.90;;;;;;7366625;19;20014;-68
2023/03/25 07:46:58;;;;;;;18.63;4.40;;;8.40;99.90;;;;;;7368959;19;20093;-69
2023/03/25 07:49:25;;;;;;;17.58;3.72;;;8.30;99.90;;;;;;7364889;19;20035;-69
2023/03/25 07:51:54;;;;;;;16.90;3.72;;;8.30;99.90;;;;;;7367064;19;20022;-62
2023/03/25 07:54:21;;;;;;;24.85;4.68;;;8.30;99.90;;;;;;7366982;19;20026;-63
2023/03/25 07:56:47;;;;;;;22.30;4.60;;;8.30;99.90;;;;;;7366276;19;20014;-69
2023/03/25 07:59:13;;;;;;;26.25;4.43;;;8.30;99.90;;;;;;7368807;19;20039;-69
2023/03/25 08:01:43;;;;;;;18.45;4.50;;;8.30;99.90;;;;;;7366955;19;20014;-69
2023/03/25 08:04:12;;;;;;;24.45;4.30;;;8.30;99.90;;;;;;7371224;19;20023;-63
2023/03/25 08:06:39;;;;;;;19.58;4.22;;;8.30;99.90;;;;;;7368845;19;20014;-64
2023/03/25 08:09:06;;;;;;;22.08;4.13;;;8.20;99.90;;;;;;7365898;19;20022;-63
2023/03/25 08:11:32;;;;;;;20.17;4.20;;;8.20;99.90;;;;;;7367605;19;20022;-63
2023/03/25 08:13:58;;;;;;;19.40;5.13;;;8.20;99.90;;;;;;7372660;19;20038;-63
2023/03/25 08:16:25;;;;;;;21.85;4.35;;;8.30;99.90;;;;;;7367684;19;20487;-63
2023/03/25 08:18:54;;;;;;;19.50;4.10;;;8.30;99.90;;;;;;7371937;19;20018;-63
2023/03/25 08:21:26;;;;;;;27.45;5.20;;;8.20;99.90;;;;;;7365626;19;20470;-63
2023/03/25 08:23:57;;;;;;;25.10;5.03;;;8.20;99.90;;;;;;7360663;19;20022;-63
2023/03/25 08:26:27;;;;;;;23.60;4.50;;;8.30;99.90;;;;;;7362087;19;20014;-63
2023/03/25 08:28:56;;;;;;;23.05;4.60;;;8.40;99.90;;;;;;7368202;19;20851;-63
2023/03/25 08:31:33;;;;;;;28.42;5.47;;;8.50;99.90;;;;;;7374009;19;20044;-63
2023/03/25 08:34:00;;;;;;;28.08;4.60;;;8.60;99.90;;;;;;7376850;19;20014;-63
2023/03/25 08:36:27;;;;;;;23.85;4.70;;;8.70;99.90;;;;;;7373497;19;20018;-70
2023/03/25 08:38:54;;;;;;;24.92;5.03;;;8.80;99.90;;;;;;7375191;19;20018;-70
2023/03/25 08:41:20;;;;;;;26.50;4.90;;;8.80;99.90;;;;;;7368768;19;20924;-64
2023/03/25 08:43:47;;;;;;;28.65;5.00;;;8.80;99.90;;;;;;7368279;19;20083;-64
2023/03/25 08:46:13;;;;;;;24.10;5.50;;;8.80;99.90;;;;;;7373040;19;20391;-64
2023/03/25 08:48:40;;;;;;;21.83;5.30;;;8.80;99.90;;;;;;7369691;19;20130;-64
2023/03/25 08:51:06;;;;;;;24.02;5.03;;;8.80;99.90;;;;;;7372112;19;20019;-64
2023/03/25 08:53:33;;;;;;;23.85;9.48;;;8.90;99.90;;;;;;7368069;19;20039;-63
2023/03/25 08:55:59;;;;;;;21.67;5.10;;;8.90;99.90;;;;;;7372245;19;20865;-64
2023/03/25 08:58:26;;;;;;;24.30;4.93;;;9.00;99.90;;;;;;7368236;19;20647;-64
2023/03/25 09:00:54;;;;;;;20.02;4.13;;;9.20;99.90;;;;;;7373667;19;20353;-64
2023/03/25 09:03:22;;;;;;;24.63;4.70;;;9.10;99.90;;;;;;7370131;19;20015;-63
2023/03/25 09:05:49;;;;;;;25.23;5.95;;;9.10;99.90;;;;;;7375021;19;20516;-63
2023/03/25 09:08:15;;;;;;;23.25;5.15;;;9.20;99.90;;;;;;7369922;19;20421;-63
2023/03/25 09:10:42;;;;;;;26.75;4.93;;;9.20;99.90;;;;;;7373748;19;20011;-63
2023/03/25 09:13:08;;;;;;;25.58;5.72;;;9.20;99.90;;;;;;7367608;19;20018;-64
2023/03/25 09:15:34;;;;;;;20.50;4.88;;;9.10;99.90;;;;;;7366955;19;20536;-63
2023/03/25 09:18:00;;;;;;;27.95;4.97;;;9.00;99.90;;;;;;7363867;19;20102;-63
2023/03/25 09:20:27;;;;;;;23.17;4.82;;;8.80;99.90;;;;;;7371144;19;20135;-63
2023/03/25 09:22:53;;;;;;;29.45;5.28;;;8.80;99.90;;;;;;7369707;19;20391;-64
2023/03/25 09:25:19;;;;;;;20.58;4.47;;;8.80;99.90;;;;;;7369570;19;20786;-63
2023/03/25 09:27:46;;;;;;;22.42;4.60;;;9.10;99.90;;;;;;7369257;19;20162;-64
2023/03/25 09:30:18;;;;;;;24.02;5.20;;;9.40;99.90;;;;;;7372289;19;20033;-63
2023/03/25 09:32:44;;;;;;;26.80;4.63;;;9.60;99.90;;;;;;7372214;19;20074;-64
2023/03/25 09:35:10;;;;;;;19.20;3.88;;;9.90;99.90;;;;;;7363097;19;20038;-63
2023/03/25 09:37:36;;;;;;;17.30;3.22;;;9.80;99.90;;;;;;7376308;19;20039;-63
2023/03/25 09:40:04;;;;;;;19.75;4.10;;;9.60;99.90;;;;;;7366737;19;20014;-64
2023/03/25 09:42:43;;;;;;;21.35;4.75;;;9.60;99.90;;;;;;7370999;19;20018;-64
2023/03/25 09:45:20;;;;;;;23.85;4.53;;;9.50;99.90;;;;;;7366303;19;20019;-64
2023/03/25 09:48:17;;;;;;;15.63;4.40;;;9.30;99.90;;;;;;7371770;19;20919;-65
2023/03/25 09:50:45;;;;;;;20.27;3.90;;;9.30;99.90;;;;;;7383464;19;20483;-68
2023/03/25 09:53:22;;;;;;;19.17;4.20;;;9.10;99.90;;;;;;7380897;19;20028;-68
2023/03/25 09:55:49;;;;;;;17.52;3.97;;;9.20;99.90;;;;;;7383695;19;20015;-68
2023/03/25 09:58:40;;;;;;;18.00;4.18;;;9.30;99.90;;;;;;7382733;19;20367;-68
2023/03/25 10:01:30;;;;;;;17.53;4.10;;;9.20;99.90;;;;;;7385100;19;20022;-68
2023/03/25 10:04:17;;;;;;;19.90;4.18;;;9.10;99.90;;;;;;7374950;19;20019;-68
2023/03/25 10:07:14;;;;;;;18.17;3.50;;;9.00;99.90;;;;;;7381395;19;21045;-68
2023/03/25 10:10:06;;;;;;;20.08;4.07;;;9.00;99.90;;;;;;7381008;19;20065;-68
2023/03/25 10:12:46;;;;;;;23.20;4.35;;;9.10;99.90;;;;;;7376468;19;20031;-68
2023/03/25 10:15:38;;;;;;;20.27;4.00;;;9.30;99.90;;;;;;7374397;19;20019;-69
2023/03/25 10:18:21;;;;;;;20.23;3.70;;;9.30;99.90;;;;;;7373826;19;20014;-69
2023/03/25 10:21:06;;;;;;;15.15;3.80;;;9.40;99.90;;;;;;7379220;19;20485;-69
2023/03/25 10:24:09;;;;;;;18.17;3.47;;;9.40;99.90;;;;;;7376342;19;20489;-69
2023/03/25 10:27:02;;;;;;;17.02;3.67;;;9.40;99.90;;;;;;7383526;19;20019;-69
2023/03/25 10:29:40;;;;;;;17.77;5.07;;;9.40;99.90;;;;;;7378623;19;20026;-69
2023/03/25 10:32:16;;;;;;;21.13;4.03;;;9.50;99.90;;;;;;7384658;19;20011;-69
2023/03/25 10:34:48;;;;;;;22.98;4.25;;;9.50;99.90;;;;;;7378171;19;20065;-69
2023/03/25 10:37:30;;;;;;;16.90;3.42;;;9.50;99.90;;;;;;7377807;19;20043;-70
2023/03/25 10:40:20;;;;;;;18.05;4.65;;;9.50;99.90;;;;;;7372901;19;20019;-68
2023/03/25 10:43:03;;;;;;;22.52;4.85;;;9.70;99.90;;;;;;7381409;19;20015;-71
2023/03/25 10:45:30;;;;;;;16.10;3.25;;;9.70;99.90;;;;;;7379062;19;20829;-68
2023/03/25 10:48:10;;;;;;;17.85;3.17;;;9.80;99.90;;;;;;7375830;19;20060;-68
2023/03/25 10:50:37;;;;;;;18.73;3.92;;;10.20;99.90;;;;;;7369654;19;20025;-68
2023/03/25 10:53:04;;;;;;;16.30;3.42;;;10.80;99.90;;;;;;7372538;19;20367;-69
2023/03/25 10:55:34;;;;;;;19.33;3.53;;;11.10;99.90;;;;;;7378515;19;20015;-68
2023/03/25 10:58:00;;;;;;;14.73;3.47;;;11.60;99.90;;;;;;7374855;19;20449;-68
2023/03/25 11:00:29;;;;;;;11.25;3.00;;;11.40;99.90;;;;;;7376804;19;20476;-69
2023/03/25 11:02:55;;;;;;;17.25;3.35;;;11.00;99.90;;;;;;7378519;19;20022;-69
2023/03/25 11:05:28;;;;;;;16.20;3.10;;;11.00;99.90;;;;;;7378170;19;20426;-69
2023/03/25 11:08:03;;;;;;;17.95;3.83;;;11.00;99.90;;;;;;7373197;19;20799;-69
2023/03/25 11:10:33;;;;;;;16.05;3.45;;;11.10;99.90;;;;;;7374905;19;20060;-69
2023/03/25 11:13:03;;;;;;;15.75;3.17;;;11.40;99.90;;;;;;7373761;19;20025;-69
2023/03/25 11:15:35;;;;;;;20.02;4.18;;;11.60;99.90;;;;;;7369402;19;22024;-68
2023/03/25 11:18:03;;;;;;;17.58;4.60;;;11.80;99.90;;;;;;7374073;19;20014;-69
2023/03/25 11:20:37;;;;;;;15.73;3.92;;;11.80;99.90;;;;;;7375356;19;20016;-69
2023/03/25 11:23:18;;;;;;;19.90;3.97;;;11.60;99.90;;;;;;7366326;19;20509;-64
2023/03/25 11:25:45;;;;;;;15.80;4.15;;;11.30;99.90;;;;;;7368265;19;20395;-64
2023/03/25 11:28:18;;;;;;;17.67;3.35;;;11.20;99.90;;;;;;7373285;19;20018;-65
2023/03/25 11:31:06;;;;;;;17.30;3.95;;;11.40;99.90;;;;;;7369285;19;20031;-65
2023/03/25 11:33:32;;;;;;;21.08;3.70;;;11.60;99.90;;;;;;7373118;19;20018;-65
2023/03/25 11:36:16;;;;;;;19.90;3.53;;;11.50;99.90;;;;;;7373036;19;20381;-65
2023/03/25 11:38:46;;;;;;;16.65;3.78;;;11.50;99.90;;;;;;7367626;19;20482;-64
2023/03/25 11:41:13;;;;;;;18.73;3.92;;;11.50;99.90;;;;;;7364782;19;20474;-69
2023/03/25 11:43:40;;;;;;;16.80;3.40;;;11.60;99.90;;;;;;7352946;19;20021;-65
2023/03/25 11:46:15;;;;;;;14.77;3.67;;;11.80;99.90;;;;;;7368287;19;20025;-65
2023/03/25 11:48:43;;;;;;;19.38;3.92;;;11.90;99.90;;;;;;7368985;19;20029;-65
2023/03/25 11:51:18;;;;;;;16.80;3.83;;;11.90;99.90;;;;;;7369698;19;20046;-65
2023/03/25 11:53:57;;;;;;;16.08;3.75;;;11.90;99.90;;;;;;7370584;19;20019;-65
2023/03/25 11:56:31;;;;;;;14.27;3.85;;;12.00;99.90;;;;;;7369677;19;20834;-64
2023/03/25 11:59:00;;;;;;;14.80;3.40;;;11.90;99.90;;;;;;7366114;19;20017;-65
2023/03/25 12:01:39;;;;;;;15.90;3.30;;;11.80;99.90;;;;;;7374377;19;20026;-65
2023/03/25 12:04:16;;;;;;;15.85;3.40;;;11.60;99.90;;;;;;7377084;19;20014;-65
2023/03/25 12:07:17;;;;;;;18.90;4.13;;;11.70;99.90;;;;;;7378084;19;20040;-66
2023/03/25 12:09:57;;;;;;;11.90;3.13;;;11.90;99.90;;;;;;7369820;19;20082;-65
2023/03/25 12:12:41;;;;;;;13.13;3.33;;;11.90;99.90;;;;;;7380033;19;20097;-66
2023/03/25 12:15:36;;;;;;;12.68;2.88;;;11.90;99.90;;;;;;7379277;19;20026;-66
2023/03/25 12:18:26;;;;;;;17.35;3.75;;;11.70;99.90;;;;;;7382469;19;20082;-66
2023/03/25 12:21:06;;;;;;;14.15;3.58;;;11.50;99.90;;;;;;7379370;19;20188;-66
2023/03/25 12:24:00;;;;;;;12.82;2.83;;;11.50;99.90;;;;;;7377941;19;20518;-65
2023/03/25 12:27:03;;;;;;;12.75;2.55;;;11.50;99.90;;;;;;7379655;19;20078;-65
2023/03/25 12:29:35;;;;;;;14.48;3.75;;;11.40;99.90;;;;;;7378252;19;20022;-65
2023/03/25 12:32:40;;;;;;;14.07;3.13;;;11.40;99.90;;;;;;7380234;19;20018;-65
2023/03/25 12:35:40;;;;;;;13.85;3.47;;;11.30;99.90;;;;;;7374649;19;20018;-65
2023/03/25 12:38:25;;;;;;;14.10;2.92;;;11.50;99.90;;;;;;7376188;19;20497;-66
2023/03/25 12:41:30;;;;;;;13.88;2.58;;;11.70;99.90;;;;;;7369703;19;20081;-66
2023/03/25 12:44:02;;;;;;;14.93;3.28;;;11.70;99.90;;;;;;7379005;19;20015;-65
2023/03/25 12:47:08;;;;;;;14.02;3.30;;;11.80;99.90;;;;;;7375424;19;22090;-66
2023/03/25 12:49:49;;;;;;;17.85;3.67;;;12.10;99.90;;;;;;7376921;19;20591;-65
2023/03/25 12:52:36;;;;;;;14.10;3.03;;;12.20;99.90;;;;;;7377788;19;20520;-65
2023/03/25 12:55:02;;;;;;;14.55;2.90;;;11.90;99.90;;;;;;7375431;19;20590;-65
2023/03/25 12:57:55;;;;;;;12.65;2.58;;;11.80;99.90;;;;;;7377950;19;20041;-66
2023/03/25 13:00:34;;;;;;;14.32;3.45;;;11.70;99.90;;;;;;7380226;19;20022;-62
2023/03/25 13:03:17;;;;;;;15.50;3.25;;;11.50;99.90;;;;;;7378119;19;20027;-66
2023/03/25 13:05:58;;;;;;;13.43;3.33;;;11.50;99.90;;;;;;7372977;19;20019;-66
2023/03/25 13:08:34;;;;;;;14.10;3.45;;;12.00;99.90;;;;;;7371024;19;20015;-67
2023/03/25 13:11:15;;;;;;;15.07;3.58;;;12.80;99.90;;;;;;7375027;19;20020;-66
2023/03/25 13:13:46;;;;;;;8.93;2.25;;;12.80;99.90;;;;;;7375930;19;20068;-66
2023/03/25 13:16:17;;;;;;;13.60;3.53;;;12.40;99.90;;;;;;7373588;19;20587;-66
2023/03/25 13:18:49;;;;;;;11.90;3.13;;;12.30;99.90;;;;;;7379928;19;20283;-66